sensor_id;sensor_type;location;lat;lon;timestamp;P1;durP1;ratioP1;P2;durP2;ratioP2
42186;SDS011;27858;51.414;0.018;2022-11-04T00:02:07;5.38;;;2.65;;
42186;SDS011;27858;51.414;0.018;2022-11-04T00:04:34;3.15;;;2.13;;
42186;SDS011;27858;51.414;0.018;2022-11-04T00:07:01;5.93;;;2.65;;
42186;SDS011;27858;51.414;0.018;2022-11-04T00:09:48;7.28;;;2.58;;
42186;SDS011;27858;51.414;0.018;2022-11-04T00:12:15;3.08;;;2.10;;
42186;SDS011;27858;51.414;0.018;2022-11-04T00:14:51;3.60;;;1.88;;
42186;SDS011;27858;51.414;0.018;2022-11-04T00:17:18;5.50;;;2.13;;
42186;SDS011;27858;51.414;0.018;2022-11-04T00:19:46;9.15;;;2.25;;
42186;SDS011;27858;51.414;0.018;2022-11-04T00:22:46;4.22;;;1.88;;
42186;SDS011;27858;51.414;0.018;2022-11-04T00:25:32;3.80;;;1.75;;
42186;SDS011;27858;51.414;0.018;2022-11-04T00:28:18;12.43;;;3.83;;
42186;SDS011;27858;51.414;0.018;2022-11-04T00:31:04;8.85;;;3.05;;
42186;SDS011;27858;51.414;0.018;2022-11-04T00:33:51;6.80;;;3.08;;
42186;SDS011;27858;51.414;0.018;2022-11-04T00:36:20;7.07;;;2.40;;
42186;SDS011;27858;51.414;0.018;2022-11-04T00:38:48;3.35;;;2.25;;
42186;SDS011;27858;51.414;0.018;2022-11-04T00:41:15;10.45;;;3.60;;
42186;SDS011;27858;51.414;0.018;2022-11-04T00:44:04;3.60;;;2.10;;
42186;SDS011;27858;51.414;0.018;2022-11-04T00:46:31;3.22;;;2.00;;
42186;SDS011;27858;51.414;0.018;2022-11-04T00:48:59;4.35;;;2.25;;
42186;SDS011;27858;51.414;0.018;2022-11-04T00:51:26;5.22;;;2.40;;
42186;SDS011;27858;51.414;0.018;2022-11-04T00:53:53;5.00;;;2.78;;
42186;SDS011;27858;51.414;0.018;2022-11-04T00:56:20;4.00;;;2.50;;
42186;SDS011;27858;51.414;0.018;2022-11-04T00:58:47;8.02;;;3.03;;
42186;SDS011;27858;51.414;0.018;2022-11-04T01:01:15;4.47;;;1.98;;
42186;SDS011;27858;51.414;0.018;2022-11-04T01:03:47;5.60;;;2.50;;
42186;SDS011;27858;51.414;0.018;2022-11-04T01:06:16;3.70;;;1.70;;
42186;SDS011;27858;51.414;0.018;2022-11-04T01:08:44;2.78;;;1.73;;
42186;SDS011;27858;51.414;0.018;2022-11-04T01:11:11;5.95;;;1.95;;
42186;SDS011;27858;51.414;0.018;2022-11-04T01:13:38;3.53;;;1.88;;
42186;SDS011;27858;51.414;0.018;2022-11-04T01:16:07;3.20;;;2.17;;
42186;SDS011;27858;51.414;0.018;2022-11-04T01:18:35;5.57;;;2.15;;
42186;SDS011;27858;51.414;0.018;2022-11-04T01:21:03;3.80;;;1.83;;
42186;SDS011;27858;51.414;0.018;2022-11-04T01:23:34;5.45;;;2.28;;
42186;SDS011;27858;51.414;0.018;2022-11-04T01:26:08;2.72;;;1.60;;
42186;SDS011;27858;51.414;0.018;2022-11-04T01:28:40;1.70;;;1.50;;
42186;SDS011;27858;51.414;0.018;2022-11-04T01:31:08;3.22;;;2.28;;
42186;SDS011;27858;51.414;0.018;2022-11-04T01:33:37;3.28;;;1.30;;
42186;SDS011;27858;51.414;0.018;2022-11-04T01:36:04;4.68;;;1.45;;
42186;SDS011;27858;51.414;0.018;2022-11-04T01:38:32;5.18;;;1.95;;
42186;SDS011;27858;51.414;0.018;2022-11-04T01:41:00;4.47;;;1.67;;
42186;SDS011;27858;51.414;0.018;2022-11-04T01:43:41;5.38;;;2.40;;
42186;SDS011;27858;51.414;0.018;2022-11-04T01:46:42;6.88;;;2.28;;
42186;SDS011;27858;51.414;0.018;2022-11-04T01:51:52;5.15;;;2.13;;
42186;SDS011;27858;51.414;0.018;2022-11-04T01:54:24;3.00;;;1.40;;
42186;SDS011;27858;51.414;0.018;2022-11-04T01:56:52;1.85;;;0.93;;
42186;SDS011;27858;51.414;0.018;2022-11-04T01:59:21;1.38;;;1.15;;
42186;SDS011;27858;51.414;0.018;2022-11-04T02:01:52;3.38;;;0.80;;
42186;SDS011;27858;51.414;0.018;2022-11-04T02:04:20;3.33;;;1.48;;
42186;SDS011;27858;51.414;0.018;2022-11-04T02:06:54;0.70;;;0.68;;
42186;SDS011;27858;51.414;0.018;2022-11-04T02:09:23;2.75;;;1.00;;
42186;SDS011;27858;51.414;0.018;2022-11-04T02:11:52;2.38;;;0.75;;
42186;SDS011;27858;51.414;0.018;2022-11-04T02:14:37;2.20;;;1.20;;
42186;SDS011;27858;51.414;0.018;2022-11-04T02:30:43;1.70;;;1.30;;
42186;SDS011;27858;51.414;0.018;2022-11-04T02:36:01;2.50;;;1.00;;
42186;SDS011;27858;51.414;0.018;2022-11-04T02:41:29;0.95;;;0.88;;
42186;SDS011;27858;51.414;0.018;2022-11-04T02:44:18;1.50;;;0.80;;
42186;SDS011;27858;51.414;0.018;2022-11-04T02:47:02;4.45;;;1.42;;
42186;SDS011;27858;51.414;0.018;2022-11-04T02:49:47;2.72;;;1.75;;
42186;SDS011;27858;51.414;0.018;2022-11-04T02:55:17;6.82;;;2.60;;
42186;SDS011;27858;51.414;0.018;2022-11-04T02:58:08;6.72;;;3.10;;
42186;SDS011;27858;51.414;0.018;2022-11-04T03:00:40;3.95;;;2.88;;
42186;SDS011;27858;51.414;0.018;2022-11-04T03:03:13;8.75;;;3.22;;
42186;SDS011;27858;51.414;0.018;2022-11-04T03:05:43;3.97;;;2.65;;
42186;SDS011;27858;51.414;0.018;2022-11-04T03:08:18;4.35;;;3.03;;
42186;SDS011;27858;51.414;0.018;2022-11-04T03:11:10;9.00;;;3.45;;
42186;SDS011;27858;51.414;0.018;2022-11-04T03:16:25;7.15;;;4.35;;
42186;SDS011;27858;51.414;0.018;2022-11-04T03:22:03;6.65;;;4.95;;
42186;SDS011;27858;51.414;0.018;2022-11-04T03:24:34;7.90;;;4.80;;
42186;SDS011;27858;51.414;0.018;2022-11-04T03:29:36;7.00;;;4.05;;
42186;SDS011;27858;51.414;0.018;2022-11-04T03:35:01;8.02;;;4.35;;
42186;SDS011;27858;51.414;0.018;2022-11-04T03:37:28;8.48;;;4.65;;
42186;SDS011;27858;51.414;0.018;2022-11-04T03:39:55;9.55;;;4.57;;
42186;SDS011;27858;51.414;0.018;2022-11-04T03:42:22;8.85;;;4.35;;
42186;SDS011;27858;51.414;0.018;2022-11-04T03:44:53;7.93;;;4.47;;
42186;SDS011;27858;51.414;0.018;2022-11-04T03:47:23;6.13;;;3.63;;
42186;SDS011;27858;51.414;0.018;2022-11-04T03:49:53;5.55;;;4.15;;
42186;SDS011;27858;51.414;0.018;2022-11-04T03:52:27;10.98;;;4.03;;
42186;SDS011;27858;51.414;0.018;2022-11-04T03:54:54;5.88;;;3.25;;
42186;SDS011;27858;51.414;0.018;2022-11-04T03:57:25;4.78;;;2.67;;
42186;SDS011;27858;51.414;0.018;2022-11-04T04:00:12;4.95;;;2.75;;
42186;SDS011;27858;51.414;0.018;2022-11-04T04:05:21;5.97;;;2.83;;
42186;SDS011;27858;51.414;0.018;2022-11-04T04:07:58;3.88;;;3.13;;
42186;SDS011;27858;51.414;0.018;2022-11-04T04:13:27;7.10;;;2.80;;
42186;SDS011;27858;51.414;0.018;2022-11-04T04:16:46;5.45;;;2.50;;
42186;SDS011;27858;51.414;0.018;2022-11-04T04:19:24;7.55;;;2.65;;
42186;SDS011;27858;51.414;0.018;2022-11-04T04:22:25;5.53;;;2.17;;
42186;SDS011;27858;51.414;0.018;2022-11-04T04:24:48;6.18;;;2.83;;
42186;SDS011;27858;51.414;0.018;2022-11-04T04:27:37;4.68;;;2.80;;
42186;SDS011;27858;51.414;0.018;2022-11-04T04:30:07;8.45;;;1.70;;
42186;SDS011;27858;51.414;0.018;2022-11-04T04:32:37;5.40;;;2.42;;
42186;SDS011;27858;51.414;0.018;2022-11-04T04:35:10;6.57;;;2.17;;
42186;SDS011;27858;51.414;0.018;2022-11-04T04:37:57;4.95;;;1.60;;
42186;SDS011;27858;51.414;0.018;2022-11-04T04:40:56;7.07;;;2.95;;
42186;SDS011;27858;51.414;0.018;2022-11-04T04:43:47;6.53;;;2.00;;
42186;SDS011;27858;51.414;0.018;2022-11-04T04:46:33;3.97;;;1.70;;
42186;SDS011;27858;51.414;0.018;2022-11-04T04:49:06;5.68;;;2.03;;
42186;SDS011;27858;51.414;0.018;2022-11-04T04:51:35;8.43;;;1.92;;
42186;SDS011;27858;51.414;0.018;2022-11-04T04:54:04;9.13;;;2.47;;
42186;SDS011;27858;51.414;0.018;2022-11-04T04:56:32;5.13;;;2.75;;
42186;SDS011;27858;51.414;0.018;2022-11-04T04:58:59;5.55;;;1.75;;
42186;SDS011;27858;51.414;0.018;2022-11-04T05:01:25;5.72;;;2.40;;
42186;SDS011;27858;51.414;0.018;2022-11-04T05:03:52;6.78;;;2.35;;
42186;SDS011;27858;51.414;0.018;2022-11-04T05:06:19;5.22;;;2.78;;
42186;SDS011;27858;51.414;0.018;2022-11-04T05:08:46;7.03;;;2.75;;
42186;SDS011;27858;51.414;0.018;2022-11-04T05:11:15;6.60;;;2.80;;
42186;SDS011;27858;51.414;0.018;2022-11-04T05:13:45;4.40;;;2.65;;
42186;SDS011;27858;51.414;0.018;2022-11-04T05:16:12;3.75;;;2.40;;
42186;SDS011;27858;51.414;0.018;2022-11-04T05:18:39;11.68;;;3.10;;
42186;SDS011;27858;51.414;0.018;2022-11-04T05:21:06;6.95;;;3.00;;
42186;SDS011;27858;51.414;0.018;2022-11-04T05:23:35;10.68;;;3.08;;
42186;SDS011;27858;51.414;0.018;2022-11-04T05:26:03;17.40;;;3.53;;
42186;SDS011;27858;51.414;0.018;2022-11-04T05:28:31;6.65;;;3.67;;
42186;SDS011;27858;51.414;0.018;2022-11-04T05:31:01;5.38;;;3.15;;
42186;SDS011;27858;51.414;0.018;2022-11-04T05:33:29;12.27;;;4.05;;
42186;SDS011;27858;51.414;0.018;2022-11-04T05:36:10;10.90;;;4.15;;
42186;SDS011;27858;51.414;0.018;2022-11-04T05:38:39;7.22;;;4.10;;
42186;SDS011;27858;51.414;0.018;2022-11-04T05:41:07;7.22;;;4.65;;
42186;SDS011;27858;51.414;0.018;2022-11-04T05:43:36;7.43;;;4.20;;
42186;SDS011;27858;51.414;0.018;2022-11-04T05:46:03;7.13;;;3.83;;
42186;SDS011;27858;51.414;0.018;2022-11-04T05:48:30;11.63;;;4.72;;
42186;SDS011;27858;51.414;0.018;2022-11-04T05:51:05;14.63;;;4.20;;
42186;SDS011;27858;51.414;0.018;2022-11-04T05:53:32;9.77;;;4.63;;
42186;SDS011;27858;51.414;0.018;2022-11-04T05:55:58;12.88;;;4.78;;
42186;SDS011;27858;51.414;0.018;2022-11-04T05:58:25;5.60;;;3.75;;
42186;SDS011;27858;51.414;0.018;2022-11-04T06:00:52;9.07;;;5.05;;
42186;SDS011;27858;51.414;0.018;2022-11-04T06:03:19;10.30;;;4.38;;
42186;SDS011;27858;51.414;0.018;2022-11-04T06:05:46;9.30;;;4.18;;
42186;SDS011;27858;51.414;0.018;2022-11-04T06:08:13;9.98;;;4.25;;
42186;SDS011;27858;51.414;0.018;2022-11-04T06:10:39;10.13;;;4.30;;
42186;SDS011;27858;51.414;0.018;2022-11-04T06:13:08;8.57;;;4.43;;
42186;SDS011;27858;51.414;0.018;2022-11-04T06:15:35;9.85;;;3.88;;
42186;SDS011;27858;51.414;0.018;2022-11-04T06:18:02;6.70;;;3.40;;
42186;SDS011;27858;51.414;0.018;2022-11-04T06:20:29;8.93;;;4.03;;
42186;SDS011;27858;51.414;0.018;2022-11-04T06:22:55;6.35;;;3.80;;
42186;SDS011;27858;51.414;0.018;2022-11-04T06:25:22;5.38;;;3.38;;
42186;SDS011;27858;51.414;0.018;2022-11-04T06:27:49;11.68;;;5.43;;
42186;SDS011;27858;51.414;0.018;2022-11-04T06:30:16;9.15;;;4.65;;
42186;SDS011;27858;51.414;0.018;2022-11-04T06:32:43;11.82;;;4.57;;
42186;SDS011;27858;51.414;0.018;2022-11-04T06:35:10;9.23;;;3.30;;
42186;SDS011;27858;51.414;0.018;2022-11-04T06:37:36;9.48;;;3.83;;
42186;SDS011;27858;51.414;0.018;2022-11-04T06:40:03;15.55;;;5.43;;
42186;SDS011;27858;51.414;0.018;2022-11-04T06:42:31;7.82;;;4.57;;
42186;SDS011;27858;51.414;0.018;2022-11-04T06:44:57;7.60;;;4.13;;
42186;SDS011;27858;51.414;0.018;2022-11-04T06:47:24;7.97;;;4.75;;
42186;SDS011;27858;51.414;0.018;2022-11-04T06:49:51;9.75;;;3.97;;
42186;SDS011;27858;51.414;0.018;2022-11-04T06:52:18;9.07;;;3.95;;
42186;SDS011;27858;51.414;0.018;2022-11-04T06:54:45;6.35;;;3.63;;
42186;SDS011;27858;51.414;0.018;2022-11-04T06:57:13;9.27;;;4.13;;
42186;SDS011;27858;51.414;0.018;2022-11-04T06:59:40;7.43;;;3.10;;
42186;SDS011;27858;51.414;0.018;2022-11-04T07:02:09;10.15;;;3.92;;
42186;SDS011;27858;51.414;0.018;2022-11-04T07:04:36;6.40;;;3.53;;
42186;SDS011;27858;51.414;0.018;2022-11-04T07:07:03;6.90;;;3.13;;
42186;SDS011;27858;51.414;0.018;2022-11-04T07:09:30;6.95;;;4.10;;
42186;SDS011;27858;51.414;0.018;2022-11-04T07:11:57;9.45;;;3.90;;
42186;SDS011;27858;51.414;0.018;2022-11-04T07:14:23;10.75;;;4.03;;
42186;SDS011;27858;51.414;0.018;2022-11-04T07:16:50;11.13;;;4.53;;
42186;SDS011;27858;51.414;0.018;2022-11-04T07:19:17;5.75;;;3.25;;
42186;SDS011;27858;51.414;0.018;2022-11-04T07:21:44;5.30;;;3.15;;
42186;SDS011;27858;51.414;0.018;2022-11-04T07:24:11;10.07;;;5.00;;
42186;SDS011;27858;51.414;0.018;2022-11-04T07:26:38;6.45;;;3.28;;
42186;SDS011;27858;51.414;0.018;2022-11-04T07:29:05;10.15;;;3.83;;
42186;SDS011;27858;51.414;0.018;2022-11-04T07:31:32;13.27;;;4.38;;
42186;SDS011;27858;51.414;0.018;2022-11-04T07:33:59;13.18;;;3.75;;
42186;SDS011;27858;51.414;0.018;2022-11-04T07:36:26;5.68;;;3.65;;
42186;SDS011;27858;51.414;0.018;2022-11-04T07:38:53;10.35;;;4.30;;
42186;SDS011;27858;51.414;0.018;2022-11-04T07:41:20;6.15;;;3.65;;
42186;SDS011;27858;51.414;0.018;2022-11-04T07:43:50;9.25;;;4.20;;
42186;SDS011;27858;51.414;0.018;2022-11-04T07:46:18;6.68;;;3.58;;
42186;SDS011;27858;51.414;0.018;2022-11-04T07:48:46;9.27;;;3.83;;
42186;SDS011;27858;51.414;0.018;2022-11-04T07:51:14;9.57;;;4.70;;
42186;SDS011;27858;51.414;0.018;2022-11-04T07:53:42;9.88;;;4.53;;
42186;SDS011;27858;51.414;0.018;2022-11-04T07:56:10;9.30;;;4.15;;
42186;SDS011;27858;51.414;0.018;2022-11-04T07:58:38;9.00;;;4.13;;
42186;SDS011;27858;51.414;0.018;2022-11-04T08:01:07;9.38;;;3.65;;
42186;SDS011;27858;51.414;0.018;2022-11-04T08:03:37;8.07;;;3.10;;
42186;SDS011;27858;51.414;0.018;2022-11-04T08:06:05;5.75;;;3.50;;
42186;SDS011;27858;51.414;0.018;2022-11-04T08:08:33;7.22;;;3.92;;
42186;SDS011;27858;51.414;0.018;2022-11-04T08:11:04;11.80;;;3.88;;
42186;SDS011;27858;51.414;0.018;2022-11-04T08:13:39;8.45;;;3.78;;
42186;SDS011;27858;51.414;0.018;2022-11-04T08:16:11;10.20;;;4.90;;
42186;SDS011;27858;51.414;0.018;2022-11-04T08:18:39;10.73;;;4.35;;
42186;SDS011;27858;51.414;0.018;2022-11-04T08:21:07;9.00;;;3.80;;
42186;SDS011;27858;51.414;0.018;2022-11-04T08:23:35;15.52;;;5.57;;
42186;SDS011;27858;51.414;0.018;2022-11-04T08:26:06;9.63;;;4.47;;
42186;SDS011;27858;51.414;0.018;2022-11-04T08:28:37;13.40;;;3.85;;
42186;SDS011;27858;51.414;0.018;2022-11-04T08:31:09;7.78;;;3.38;;
42186;SDS011;27858;51.414;0.018;2022-11-04T08:33:39;10.00;;;3.83;;
42186;SDS011;27858;51.414;0.018;2022-11-04T08:36:07;8.02;;;3.28;;
42186;SDS011;27858;51.414;0.018;2022-11-04T08:38:43;8.13;;;3.65;;
42186;SDS011;27858;51.414;0.018;2022-11-04T08:41:10;4.97;;;2.97;;
42186;SDS011;27858;51.414;0.018;2022-11-04T08:43:39;4.28;;;2.75;;
42186;SDS011;27858;51.414;0.018;2022-11-04T08:46:07;5.70;;;2.50;;
42186;SDS011;27858;51.414;0.018;2022-11-04T08:48:37;6.80;;;2.65;;
42186;SDS011;27858;51.414;0.018;2022-11-04T08:51:05;6.15;;;2.63;;
42186;SDS011;27858;51.414;0.018;2022-11-04T08:53:37;9.77;;;2.90;;
42186;SDS011;27858;51.414;0.018;2022-11-04T08:56:14;3.83;;;2.15;;
42186;SDS011;27858;51.414;0.018;2022-11-04T08:58:47;12.18;;;3.53;;
42186;SDS011;27858;51.414;0.018;2022-11-04T09:01:14;5.05;;;2.40;;
42186;SDS011;27858;51.414;0.018;2022-11-04T09:03:42;3.55;;;2.05;;
42186;SDS011;27858;51.414;0.018;2022-11-04T09:06:10;5.45;;;2.17;;
42186;SDS011;27858;51.414;0.018;2022-11-04T09:08:41;6.68;;;2.33;;
42186;SDS011;27858;51.414;0.018;2022-11-04T09:11:09;7.05;;;2.33;;
42186;SDS011;27858;51.414;0.018;2022-11-04T09:13:37;4.47;;;2.70;;
42186;SDS011;27858;51.414;0.018;2022-11-04T09:16:05;5.93;;;2.38;;
42186;SDS011;27858;51.414;0.018;2022-11-04T09:18:33;10.82;;;2.67;;
42186;SDS011;27858;51.414;0.018;2022-11-04T09:21:00;4.88;;;1.95;;
42186;SDS011;27858;51.414;0.018;2022-11-04T09:23:28;6.90;;;3.03;;
42186;SDS011;27858;51.414;0.018;2022-11-04T09:25:56;6.88;;;2.55;;
42186;SDS011;27858;51.414;0.018;2022-11-04T09:28:24;5.80;;;3.13;;
42186;SDS011;27858;51.414;0.018;2022-11-04T09:30:51;5.05;;;2.00;;
42186;SDS011;27858;51.414;0.018;2022-11-04T09:33:18;5.65;;;2.00;;
42186;SDS011;27858;51.414;0.018;2022-11-04T16:34:37;2.60;;;1.20;;
42186;SDS011;27858;51.414;0.018;2022-11-04T16:37:04;2.38;;;1.27;;
42186;SDS011;27858;51.414;0.018;2022-11-04T16:39:31;4.63;;;1.60;;
42186;SDS011;27858;51.414;0.018;2022-11-04T16:41:58;1.73;;;0.90;;
42186;SDS011;27858;51.414;0.018;2022-11-04T16:44:25;3.83;;;1.70;;
42186;SDS011;27858;51.414;0.018;2022-11-04T16:46:52;9.77;;;2.00;;
42186;SDS011;27858;51.414;0.018;2022-11-04T16:49:21;2.50;;;0.90;;
42186;SDS011;27858;51.414;0.018;2022-11-04T16:51:55;5.68;;;1.38;;
42186;SDS011;27858;51.414;0.018;2022-11-04T16:54:26;3.08;;;1.48;;
42186;SDS011;27858;51.414;0.018;2022-11-04T16:56:54;2.92;;;1.80;;
42186;SDS011;27858;51.414;0.018;2022-11-04T16:59:21;6.32;;;1.73;;
42186;SDS011;27858;51.414;0.018;2022-11-04T17:01:48;4.78;;;1.58;;
42186;SDS011;27858;51.414;0.018;2022-11-04T17:04:15;2.72;;;0.88;;
42186;SDS011;27858;51.414;0.018;2022-11-04T17:06:42;5.47;;;1.67;;
42186;SDS011;27858;51.414;0.018;2022-11-04T17:09:20;1.67;;;0.80;;
42186;SDS011;27858;51.414;0.018;2022-11-04T17:11:48;6.38;;;1.85;;
42186;SDS011;27858;51.414;0.018;2022-11-04T17:14:15;5.00;;;1.60;;
42186;SDS011;27858;51.414;0.018;2022-11-04T17:16:42;5.50;;;1.77;;
42186;SDS011;27858;51.414;0.018;2022-11-04T17:19:13;4.60;;;1.55;;
42186;SDS011;27858;51.414;0.018;2022-11-04T17:21:41;5.07;;;2.33;;
42186;SDS011;27858;51.414;0.018;2022-11-04T17:24:09;1.70;;;0.88;;
42186;SDS011;27858;51.414;0.018;2022-11-04T17:26:37;2.97;;;1.38;;
42186;SDS011;27858;51.414;0.018;2022-11-04T17:29:04;3.75;;;1.27;;
42186;SDS011;27858;51.414;0.018;2022-11-04T17:31:31;4.53;;;1.30;;
42186;SDS011;27858;51.414;0.018;2022-11-04T17:33:58;3.60;;;1.10;;
42186;SDS011;27858;51.414;0.018;2022-11-04T17:36:25;3.75;;;1.95;;
42186;SDS011;27858;51.414;0.018;2022-11-04T17:38:52;4.97;;;1.65;;
42186;SDS011;27858;51.414;0.018;2022-11-04T17:41:19;1.90;;;1.15;;
42186;SDS011;27858;51.414;0.018;2022-11-04T17:44:04;5.30;;;1.38;;
42186;SDS011;27858;51.414;0.018;2022-11-04T17:46:32;6.30;;;2.08;;
42186;SDS011;27858;51.414;0.018;2022-11-04T17:49:00;5.85;;;1.20;;
42186;SDS011;27858;51.414;0.018;2022-11-04T17:51:29;2.13;;;1.30;;
42186;SDS011;27858;51.414;0.018;2022-11-04T17:53:56;3.70;;;1.30;;
42186;SDS011;27858;51.414;0.018;2022-11-04T17:56:23;2.80;;;1.42;;
42186;SDS011;27858;51.414;0.018;2022-11-04T17:58:51;2.88;;;1.40;;
42186;SDS011;27858;51.414;0.018;2022-11-04T18:01:19;3.85;;;1.65;;
42186;SDS011;27858;51.414;0.018;2022-11-04T18:03:49;3.40;;;1.95;;
42186;SDS011;27858;51.414;0.018;2022-11-04T18:06:18;4.55;;;1.58;;
42186;SDS011;27858;51.414;0.018;2022-11-04T18:08:46;5.18;;;1.80;;
42186;SDS011;27858;51.414;0.018;2022-11-04T18:11:13;8.23;;;2.97;;
42186;SDS011;27858;51.414;0.018;2022-11-04T18:14:00;13.80;;;2.83;;
42186;SDS011;27858;51.414;0.018;2022-11-04T18:16:27;5.45;;;3.00;;
42186;SDS011;27858;51.414;0.018;2022-11-04T18:18:58;5.28;;;2.72;;
42186;SDS011;27858;51.414;0.018;2022-11-04T18:21:26;9.77;;;3.13;;
42186;SDS011;27858;51.414;0.018;2022-11-04T18:23:54;8.90;;;2.60;;
42186;SDS011;27858;51.414;0.018;2022-11-04T18:26:21;8.65;;;3.28;;
42186;SDS011;27858;51.414;0.018;2022-11-04T18:28:48;8.57;;;3.13;;
42186;SDS011;27858;51.414;0.018;2022-11-04T18:31:34;4.28;;;2.65;;
42186;SDS011;27858;51.414;0.018;2022-11-04T18:34:04;8.45;;;3.03;;
42186;SDS011;27858;51.414;0.018;2022-11-04T18:36:35;8.38;;;2.65;;
42186;SDS011;27858;51.414;0.018;2022-11-04T18:39:04;7.80;;;2.63;;
42186;SDS011;27858;51.414;0.018;2022-11-04T18:41:34;7.45;;;3.53;;
42186;SDS011;27858;51.414;0.018;2022-11-04T18:44:01;7.25;;;3.63;;
42186;SDS011;27858;51.414;0.018;2022-11-04T18:46:29;12.48;;;4.47;;
42186;SDS011;27858;51.414;0.018;2022-11-04T18:48:56;8.80;;;3.80;;
42186;SDS011;27858;51.414;0.018;2022-11-04T18:51:24;10.38;;;3.60;;
42186;SDS011;27858;51.414;0.018;2022-11-04T18:53:51;9.38;;;4.32;;
42186;SDS011;27858;51.414;0.018;2022-11-04T18:56:19;6.57;;;3.35;;
42186;SDS011;27858;51.414;0.018;2022-11-04T18:58:47;11.50;;;3.72;;
42186;SDS011;27858;51.414;0.018;2022-11-04T19:03:46;10.18;;;3.72;;
42186;SDS011;27858;51.414;0.018;2022-11-04T19:06:15;7.50;;;3.40;;
42186;SDS011;27858;51.414;0.018;2022-11-04T19:08:44;10.25;;;4.13;;
42186;SDS011;27858;51.414;0.018;2022-11-04T19:11:13;10.45;;;4.00;;
42186;SDS011;27858;51.414;0.018;2022-11-04T19:13:57;15.02;;;5.80;;
42186;SDS011;27858;51.414;0.018;2022-11-04T19:16:33;11.65;;;4.57;;
42186;SDS011;27858;51.414;0.018;2022-11-04T19:19:01;11.27;;;5.07;;
42186;SDS011;27858;51.414;0.018;2022-11-04T19:21:31;9.38;;;3.85;;
42186;SDS011;27858;51.414;0.018;2022-11-04T19:23:59;11.98;;;5.50;;
42186;SDS011;27858;51.414;0.018;2022-11-04T19:26:28;8.70;;;4.55;;
42186;SDS011;27858;51.414;0.018;2022-11-04T19:28:57;12.70;;;6.22;;
42186;SDS011;27858;51.414;0.018;2022-11-04T19:31:26;7.75;;;4.82;;
42186;SDS011;27858;51.414;0.018;2022-11-04T19:33:57;10.73;;;4.70;;
42186;SDS011;27858;51.414;0.018;2022-11-04T19:36:29;8.57;;;4.90;;
42186;SDS011;27858;51.414;0.018;2022-11-04T19:38:58;7.07;;;4.13;;
42186;SDS011;27858;51.414;0.018;2022-11-04T19:41:25;12.13;;;5.07;;
42186;SDS011;27858;51.414;0.018;2022-11-04T19:44:12;9.60;;;5.05;;
42186;SDS011;27858;51.414;0.018;2022-11-04T19:46:41;16.10;;;5.55;;
42186;SDS011;27858;51.414;0.018;2022-11-04T19:49:08;13.80;;;6.57;;
42186;SDS011;27858;51.414;0.018;2022-11-04T19:51:37;12.57;;;5.93;;
42186;SDS011;27858;51.414;0.018;2022-11-04T19:54:05;11.45;;;7.40;;
42186;SDS011;27858;51.414;0.018;2022-11-04T19:56:31;14.70;;;6.60;;
42186;SDS011;27858;51.414;0.018;2022-11-04T19:58:59;16.13;;;8.07;;
42186;SDS011;27858;51.414;0.018;2022-11-04T20:01:31;16.00;;;8.52;;
42186;SDS011;27858;51.414;0.018;2022-11-04T20:04:00;19.52;;;9.20;;
42186;SDS011;27858;51.414;0.018;2022-11-04T20:06:28;16.23;;;10.13;;
42186;SDS011;27858;51.414;0.018;2022-11-04T20:08:59;25.15;;;12.57;;
42186;SDS011;27858;51.414;0.018;2022-11-04T20:11:27;27.33;;;14.90;;
42186;SDS011;27858;51.414;0.018;2022-11-04T20:13:53;27.75;;;15.10;;
42186;SDS011;27858;51.414;0.018;2022-11-04T20:18:50;27.40;;;15.18;;
42186;SDS011;27858;51.414;0.018;2022-11-04T20:21:23;30.83;;;18.35;;
42186;SDS011;27858;51.414;0.018;2022-11-04T20:23:54;21.77;;;13.00;;
42186;SDS011;27858;51.414;0.018;2022-11-04T20:26:22;28.40;;;15.25;;
42186;SDS011;27858;51.414;0.018;2022-11-04T20:28:50;28.00;;;15.90;;
42186;SDS011;27858;51.414;0.018;2022-11-04T20:31:20;23.85;;;14.73;;
42186;SDS011;27858;51.414;0.018;2022-11-04T20:33:49;30.63;;;16.85;;
42186;SDS011;27858;51.414;0.018;2022-11-04T20:36:18;32.92;;;17.92;;
42186;SDS011;27858;51.414;0.018;2022-11-04T20:38:46;35.25;;;20.13;;
42186;SDS011;27858;51.414;0.018;2022-11-04T20:41:14;41.50;;;21.63;;
42186;SDS011;27858;51.414;0.018;2022-11-04T20:43:45;37.60;;;22.35;;
42186;SDS011;27858;51.414;0.018;2022-11-04T20:46:19;34.75;;;19.63;;
42186;SDS011;27858;51.414;0.018;2022-11-04T20:48:49;35.00;;;19.20;;
42186;SDS011;27858;51.414;0.018;2022-11-04T20:51:18;28.65;;;15.82;;
42186;SDS011;27858;51.414;0.018;2022-11-04T20:53:47;28.65;;;16.10;;
42186;SDS011;27858;51.414;0.018;2022-11-04T20:56:15;33.83;;;16.45;;
42186;SDS011;27858;51.414;0.018;2022-11-04T20:58:43;21.38;;;13.18;;
42186;SDS011;27858;51.414;0.018;2022-11-04T21:01:14;33.33;;;12.93;;
42186;SDS011;27858;51.414;0.018;2022-11-04T21:03:46;21.92;;;13.52;;
42186;SDS011;27858;51.414;0.018;2022-11-04T21:06:13;20.90;;;12.40;;
42186;SDS011;27858;51.414;0.018;2022-11-04T21:08:40;29.75;;;14.30;;
42186;SDS011;27858;51.414;0.018;2022-11-04T21:11:07;24.52;;;12.60;;
42186;SDS011;27858;51.414;0.018;2022-11-04T21:13:33;27.25;;;11.50;;
42186;SDS011;27858;51.414;0.018;2022-11-04T21:16:01;20.40;;;11.88;;
42186;SDS011;27858;51.414;0.018;2022-11-04T21:18:28;29.35;;;13.95;;
42186;SDS011;27858;51.414;0.018;2022-11-04T21:20:55;21.70;;;11.18;;
42186;SDS011;27858;51.414;0.018;2022-11-04T21:23:22;26.25;;;11.48;;
42186;SDS011;27858;51.414;0.018;2022-11-04T21:25:54;22.50;;;11.05;;
42186;SDS011;27858;51.414;0.018;2022-11-04T21:28:23;16.20;;;10.15;;
42186;SDS011;27858;51.414;0.018;2022-11-04T21:30:51;20.00;;;11.38;;
42186;SDS011;27858;51.414;0.018;2022-11-04T21:33:19;19.13;;;11.27;;
42186;SDS011;27858;51.414;0.018;2022-11-04T21:35:46;22.67;;;13.30;;
42186;SDS011;27858;51.414;0.018;2022-11-04T21:38:14;25.33;;;12.73;;
42186;SDS011;27858;51.414;0.018;2022-11-04T21:40:42;27.10;;;13.55;;
42186;SDS011;27858;51.414;0.018;2022-11-04T21:43:10;27.35;;;14.13;;
42186;SDS011;27858;51.414;0.018;2022-11-04T21:45:37;18.65;;;9.70;;
42186;SDS011;27858;51.414;0.018;2022-11-04T21:48:04;21.48;;;10.85;;
42186;SDS011;27858;51.414;0.018;2022-11-04T21:50:31;24.45;;;12.43;;
42186;SDS011;27858;51.414;0.018;2022-11-04T21:52:58;27.05;;;12.88;;
42186;SDS011;27858;51.414;0.018;2022-11-04T21:55:25;28.85;;;12.45;;
42186;SDS011;27858;51.414;0.018;2022-11-04T21:57:52;22.95;;;11.77;;
42186;SDS011;27858;51.414;0.018;2022-11-04T22:00:18;21.00;;;12.60;;
42186;SDS011;27858;51.414;0.018;2022-11-04T22:02:45;15.02;;;9.07;;
42186;SDS011;27858;51.414;0.018;2022-11-04T22:05:18;18.02;;;10.45;;
42186;SDS011;27858;51.414;0.018;2022-11-04T22:07:46;19.45;;;9.20;;
42186;SDS011;27858;51.414;0.018;2022-11-04T22:10:31;17.40;;;7.43;;
42186;SDS011;27858;51.414;0.018;2022-11-04T22:13:01;24.17;;;10.57;;
42186;SDS011;27858;51.414;0.018;2022-11-04T22:15:29;22.08;;;10.40;;
42186;SDS011;27858;51.414;0.018;2022-11-04T22:18:14;19.42;;;11.13;;
42186;SDS011;27858;51.414;0.018;2022-11-04T22:20:41;19.73;;;9.93;;
42186;SDS011;27858;51.414;0.018;2022-11-04T22:23:08;16.17;;;9.20;;
42186;SDS011;27858;51.414;0.018;2022-11-04T22:25:35;19.00;;;9.55;;
42186;SDS011;27858;51.414;0.018;2022-11-04T22:28:02;16.05;;;7.97;;
42186;SDS011;27858;51.414;0.018;2022-11-04T22:30:29;16.98;;;8.40;;
42186;SDS011;27858;51.414;0.018;2022-11-04T22:32:56;12.10;;;6.88;;
42186;SDS011;27858;51.414;0.018;2022-11-04T22:35:23;18.83;;;11.18;;
42186;SDS011;27858;51.414;0.018;2022-11-04T22:37:50;17.20;;;9.30;;
42186;SDS011;27858;51.414;0.018;2022-11-04T22:40:16;19.35;;;8.48;;
42186;SDS011;27858;51.414;0.018;2022-11-04T22:42:43;14.18;;;8.23;;
42186;SDS011;27858;51.414;0.018;2022-11-04T22:45:10;21.50;;;9.73;;